sensor_id;sensor_type;location;lat;lon;timestamp;P1;durP1;ratioP1;P2;durP2;ratioP2
6185;SDS011;3126;52.738;8.316;2024-01-10T00:00:38;8.95;;;5.13;;
6185;SDS011;3126;52.738;8.316;2024-01-10T00:05:39;8.65;;;4.88;;
6185;SDS011;3126;52.738;8.316;2024-01-10T00:10:40;8.77;;;6.38;;
6185;SDS011;3126;52.738;8.316;2024-01-10T00:15:41;8.30;;;5.22;;
6185;SDS011;3126;52.738;8.316;2024-01-10T00:20:42;8.52;;;6.28;;
6185;SDS011;3126;52.738;8.316;2024-01-10T00:25:43;8.65;;;5.93;;
6185;SDS011;3126;52.738;8.316;2024-01-10T00:30:45;7.53;;;5.07;;
6185;SDS011;3126;52.738;8.316;2024-01-10T00:35:48;8.63;;;6.13;;
6185;SDS011;3126;52.738;8.316;2024-01-10T00:40:49;11.70;;;7.43;;
6185;SDS011;3126;52.738;8.316;2024-01-10T00:45:50;8.00;;;5.28;;
6185;SDS011;3126;52.738;8.316;2024-01-10T00:50:50;10.32;;;6.68;;
6185;SDS011;3126;52.738;8.316;2024-01-10T00:55:51;11.50;;;5.30;;
6185;SDS011;3126;52.738;8.316;2024-01-10T01:00:53;9.25;;;5.95;;
6185;SDS011;3126;52.738;8.316;2024-01-10T01:05:53;8.02;;;5.55;;
6185;SDS011;3126;52.738;8.316;2024-01-10T01:10:54;7.95;;;5.65;;
6185;SDS011;3126;52.738;8.316;2024-01-10T01:15:55;10.30;;;6.03;;
6185;SDS011;3126;52.738;8.316;2024-01-10T01:20:56;7.18;;;5.50;;
6185;SDS011;3126;52.738;8.316;2024-01-10T01:25:58;8.00;;;5.97;;
6185;SDS011;3126;52.738;8.316;2024-01-10T01:30:59;8.05;;;5.18;;
6185;SDS011;3126;52.738;8.316;2024-01-10T01:36:00;7.50;;;5.70;;
6185;SDS011;3126;52.738;8.316;2024-01-10T01:41:01;7.90;;;6.15;;
6185;SDS011;3126;52.738;8.316;2024-01-10T01:46:02;10.60;;;6.15;;
6185;SDS011;3126;52.738;8.316;2024-01-10T01:51:07;9.10;;;6.32;;
6185;SDS011;3126;52.738;8.316;2024-01-10T01:56:08;8.80;;;5.63;;
6185;SDS011;3126;52.738;8.316;2024-01-10T02:01:10;7.97;;;6.57;;
6185;SDS011;3126;52.738;8.316;2024-01-10T02:06:12;11.70;;;6.55;;
6185;SDS011;3126;52.738;8.316;2024-01-10T02:11:13;7.88;;;5.25;;
6185;SDS011;3126;52.738;8.316;2024-01-10T02:16:14;8.43;;;4.88;;
6185;SDS011;3126;52.738;8.316;2024-01-10T02:21:15;10.35;;;5.47;;
6185;SDS011;3126;52.738;8.316;2024-01-10T02:26:16;9.20;;;6.78;;
6185;SDS011;3126;52.738;8.316;2024-01-10T02:31:17;8.02;;;5.53;;
6185;SDS011;3126;52.738;8.316;2024-01-10T02:36:18;11.18;;;6.28;;
6185;SDS011;3126;52.738;8.316;2024-01-10T02:41:19;9.75;;;6.53;;
6185;SDS011;3126;52.738;8.316;2024-01-10T02:46:20;12.15;;;7.38;;
6185;SDS011;3126;52.738;8.316;2024-01-10T02:51:23;10.27;;;7.00;;
6185;SDS011;3126;52.738;8.316;2024-01-10T02:56:24;8.93;;;6.53;;
6185;SDS011;3126;52.738;8.316;2024-01-10T03:01:25;10.65;;;6.70;;
6185;SDS011;3126;52.738;8.316;2024-01-10T03:06:26;10.02;;;6.70;;
6185;SDS011;3126;52.738;8.316;2024-01-10T03:11:27;10.52;;;7.22;;
6185;SDS011;3126;52.738;8.316;2024-01-10T03:16:28;11.55;;;6.43;;
6185;SDS011;3126;52.738;8.316;2024-01-10T03:21:29;12.45;;;6.65;;
6185;SDS011;3126;52.738;8.316;2024-01-10T03:26:30;10.90;;;7.13;;
6185;SDS011;3126;52.738;8.316;2024-01-10T03:31:31;9.20;;;6.78;;
6185;SDS011;3126;52.738;8.316;2024-01-10T03:36:32;9.55;;;6.18;;
6185;SDS011;3126;52.738;8.316;2024-01-10T03:41:34;12.10;;;7.78;;
6185;SDS011;3126;52.738;8.316;2024-01-10T03:46:34;11.80;;;7.97;;
6185;SDS011;3126;52.738;8.316;2024-01-10T03:51:36;10.68;;;5.72;;
6185;SDS011;3126;52.738;8.316;2024-01-10T03:56:37;12.45;;;7.30;;
6185;SDS011;3126;52.738;8.316;2024-01-10T04:01:38;12.45;;;7.82;;
6185;SDS011;3126;52.738;8.316;2024-01-10T04:06:39;10.00;;;6.35;;
6185;SDS011;3126;52.738;8.316;2024-01-10T04:11:40;12.32;;;7.88;;
6185;SDS011;3126;52.738;8.316;2024-01-10T04:16:41;12.13;;;6.93;;
6185;SDS011;3126;52.738;8.316;2024-01-10T04:21:42;11.20;;;7.57;;
6185;SDS011;3126;52.738;8.316;2024-01-10T04:26:43;9.48;;;6.78;;
6185;SDS011;3126;52.738;8.316;2024-01-10T04:31:44;11.40;;;7.22;;
6185;SDS011;3126;52.738;8.316;2024-01-10T04:36:45;11.13;;;6.90;;
6185;SDS011;3126;52.738;8.316;2024-01-10T04:41:46;9.55;;;6.93;;
6185;SDS011;3126;52.738;8.316;2024-01-10T04:46:47;9.70;;;6.55;;
6185;SDS011;3126;52.738;8.316;2024-01-10T04:51:49;10.77;;;6.72;;
6185;SDS011;3126;52.738;8.316;2024-01-10T04:56:50;10.95;;;6.85;;
6185;SDS011;3126;52.738;8.316;2024-01-10T05:01:51;11.25;;;6.55;;
6185;SDS011;3126;52.738;8.316;2024-01-10T05:06:52;12.90;;;7.28;;
6185;SDS011;3126;52.738;8.316;2024-01-10T05:11:53;10.25;;;6.13;;
6185;SDS011;3126;52.738;8.316;2024-01-10T05:16:54;10.82;;;6.78;;
6185;SDS011;3126;52.738;8.316;2024-01-10T05:21:55;10.98;;;7.13;;
6185;SDS011;3126;52.738;8.316;2024-01-10T05:26:57;10.88;;;6.20;;
6185;SDS011;3126;52.738;8.316;2024-01-10T05:31:58;8.45;;;5.00;;
6185;SDS011;3126;52.738;8.316;2024-01-10T05:36:59;10.52;;;6.10;;
6185;SDS011;3126;52.738;8.316;2024-01-10T05:42:00;9.30;;;6.72;;
6185;SDS011;3126;52.738;8.316;2024-01-10T05:47:02;13.00;;;6.53;;
6185;SDS011;3126;52.738;8.316;2024-01-10T05:52:04;9.15;;;6.07;;
6185;SDS011;3126;52.738;8.316;2024-01-10T05:57:05;8.20;;;6.03;;
6185;SDS011;3126;52.738;8.316;2024-01-10T06:02:06;10.60;;;6.43;;
6185;SDS011;3126;52.738;8.316;2024-01-10T06:07:07;8.38;;;4.88;;
6185;SDS011;3126;52.738;8.316;2024-01-10T06:12:08;9.38;;;5.30;;
6185;SDS011;3126;52.738;8.316;2024-01-10T06:17:09;5.75;;;4.22;;
6185;SDS011;3126;52.738;8.316;2024-01-10T06:22:10;7.72;;;5.15;;
6185;SDS011;3126;52.738;8.316;2024-01-10T06:27:13;8.43;;;5.22;;
6185;SDS011;3126;52.738;8.316;2024-01-10T06:32:14;8.05;;;4.47;;
6185;SDS011;3126;52.738;8.316;2024-01-10T06:37:15;11.48;;;6.45;;
6185;SDS011;3126;52.738;8.316;2024-01-10T06:42:16;8.70;;;6.05;;
6185;SDS011;3126;52.738;8.316;2024-01-10T06:47:17;7.68;;;5.35;;
6185;SDS011;3126;52.738;8.316;2024-01-10T06:52:18;7.80;;;5.07;;
6185;SDS011;3126;52.738;8.316;2024-01-10T06:57:19;7.97;;;5.70;;
6185;SDS011;3126;52.738;8.316;2024-01-10T07:02:20;7.82;;;5.63;;
6185;SDS011;3126;52.738;8.316;2024-01-10T07:07:23;8.45;;;5.47;;
6185;SDS011;3126;52.738;8.316;2024-01-10T07:12:24;8.55;;;5.22;;
6185;SDS011;3126;52.738;8.316;2024-01-10T07:17:26;13.65;;;6.63;;
6185;SDS011;3126;52.738;8.316;2024-01-10T07:22:26;8.10;;;5.40;;
6185;SDS011;3126;52.738;8.316;2024-01-10T07:27:27;9.52;;;6.72;;
6185;SDS011;3126;52.738;8.316;2024-01-10T07:32:28;9.77;;;6.10;;
6185;SDS011;3126;52.738;8.316;2024-01-10T07:37:29;11.68;;;5.93;;
6185;SDS011;3126;52.738;8.316;2024-01-10T07:42:34;8.85;;;7.10;;
6185;SDS011;3126;52.738;8.316;2024-01-10T07:47:35;9.10;;;5.47;;
6185;SDS011;3126;52.738;8.316;2024-01-10T07:52:39;10.35;;;6.15;;
6185;SDS011;3126;52.738;8.316;2024-01-10T07:57:41;9.85;;;6.13;;
6185;SDS011;3126;52.738;8.316;2024-01-10T08:02:44;8.68;;;6.18;;
6185;SDS011;3126;52.738;8.316;2024-01-10T08:07:45;9.27;;;5.78;;
6185;SDS011;3126;52.738;8.316;2024-01-10T08:12:48;9.70;;;6.68;;
6185;SDS011;3126;52.738;8.316;2024-01-10T08:17:49;8.73;;;6.50;;
6185;SDS011;3126;52.738;8.316;2024-01-10T08:22:50;11.18;;;7.07;;
6185;SDS011;3126;52.738;8.316;2024-01-10T08:27:51;8.60;;;6.45;;
6185;SDS011;3126;52.738;8.316;2024-01-10T08:32:53;11.20;;;6.88;;
6185;SDS011;3126;52.738;8.316;2024-01-10T08:37:54;10.20;;;6.25;;
6185;SDS011;3126;52.738;8.316;2024-01-10T08:42:55;8.65;;;5.78;;
6185;SDS011;3126;52.738;8.316;2024-01-10T08:47:56;14.13;;;6.50;;
6185;SDS011;3126;52.738;8.316;2024-01-10T08:52:57;9.55;;;6.65;;
6185;SDS011;3126;52.738;8.316;2024-01-10T08:57:59;9.05;;;6.38;;
6185;SDS011;3126;52.738;8.316;2024-01-10T09:03:02;9.70;;;5.32;;
6185;SDS011;3126;52.738;8.316;2024-01-10T09:08:04;8.90;;;6.28;;
6185;SDS011;3126;52.738;8.316;2024-01-10T09:13:05;11.80;;;7.07;;
6185;SDS011;3126;52.738;8.316;2024-01-10T09:18:07;9.05;;;5.95;;
6185;SDS011;3126;52.738;8.316;2024-01-10T09:23:08;9.07;;;6.18;;
6185;SDS011;3126;52.738;8.316;2024-01-10T09:28:10;9.27;;;5.95;;
6185;SDS011;3126;52.738;8.316;2024-01-10T09:33:11;7.47;;;4.75;;
6185;SDS011;3126;52.738;8.316;2024-01-10T09:38:12;6.40;;;5.05;;
6185;SDS011;3126;52.738;8.316;2024-01-10T09:43:13;6.57;;;5.32;;
6185;SDS011;3126;52.738;8.316;2024-01-10T09:48:14;8.68;;;5.65;;
6185;SDS011;3126;52.738;8.316;2024-01-10T09:53:22;11.13;;;6.68;;
6185;SDS011;3126;52.738;8.316;2024-01-10T09:58:31;8.18;;;5.53;;
6185;SDS011;3126;52.738;8.316;2024-01-10T10:03:38;10.38;;;6.53;;
6185;SDS011;3126;52.738;8.316;2024-01-10T10:08:42;9.55;;;5.72;;
6185;SDS011;3126;52.738;8.316;2024-01-10T10:13:43;9.95;;;6.22;;
6185;SDS011;3126;52.738;8.316;2024-01-10T10:18:44;10.07;;;5.60;;
6185;SDS011;3126;52.738;8.316;2024-01-10T10:23:58;10.82;;;5.63;;
6185;SDS011;3126;52.738;8.316;2024-01-10T10:28:59;11.50;;;5.78;;
6185;SDS011;3126;52.738;8.316;2024-01-10T10:34:01;9.10;;;5.38;;
6185;SDS011;3126;52.738;8.316;2024-01-10T10:39:05;11.15;;;5.70;;
6185;SDS011;3126;52.738;8.316;2024-01-10T10:44:13;7.60;;;4.72;;
6185;SDS011;3126;52.738;8.316;2024-01-10T10:49:16;6.55;;;4.18;;
6185;SDS011;3126;52.738;8.316;2024-01-10T10:54:20;6.80;;;5.20;;
6185;SDS011;3126;52.738;8.316;2024-01-10T10:59:24;7.20;;;4.90;;
6185;SDS011;3126;52.738;8.316;2024-01-10T11:04:26;9.52;;;4.85;;
6185;SDS011;3126;52.738;8.316;2024-01-10T11:09:28;6.22;;;4.68;;
6185;SDS011;3126;52.738;8.316;2024-01-10T11:20:04;8.85;;;5.28;;
6185;SDS011;3126;52.738;8.316;2024-01-10T11:25:10;8.50;;;4.72;;
6185;SDS011;3126;52.738;8.316;2024-01-10T11:30:12;7.22;;;5.47;;
6185;SDS011;3126;52.738;8.316;2024-01-10T11:35:19;7.85;;;5.10;;
6185;SDS011;3126;52.738;8.316;2024-01-10T11:45:52;6.60;;;5.07;;
6185;SDS011;3126;52.738;8.316;2024-01-10T11:50:53;7.03;;;4.55;;
6185;SDS011;3126;52.738;8.316;2024-01-10T11:55:55;7.85;;;4.90;;
6185;SDS011;3126;52.738;8.316;2024-01-10T12:00:56;5.80;;;4.38;;
6185;SDS011;3126;52.738;8.316;2024-01-10T12:05:57;6.70;;;4.88;;
6185;SDS011;3126;52.738;8.316;2024-01-10T12:10:58;6.20;;;4.80;;
6185;SDS011;3126;52.738;8.316;2024-01-10T12:16:01;6.55;;;4.90;;
6185;SDS011;3126;52.738;8.316;2024-01-10T12:21:02;7.72;;;4.93;;
6185;SDS011;3126;52.738;8.316;2024-01-10T12:26:03;7.25;;;5.43;;
6185;SDS011;3126;52.738;8.316;2024-01-10T12:31:07;8.77;;;5.00;;
6185;SDS011;3126;52.738;8.316;2024-01-10T12:36:09;9.50;;;4.65;;
6185;SDS011;3126;52.738;8.316;2024-01-10T12:41:11;9.00;;;5.50;;
6185;SDS011;3126;52.738;8.316;2024-01-10T12:46:12;6.32;;;4.90;;
6185;SDS011;3126;52.738;8.316;2024-01-10T12:51:13;6.35;;;4.10;;
6185;SDS011;3126;52.738;8.316;2024-01-10T12:56:14;6.80;;;4.85;;
6185;SDS011;3126;52.738;8.316;2024-01-10T13:01:15;8.38;;;5.25;;
6185;SDS011;3126;52.738;8.316;2024-01-10T13:06:16;9.93;;;5.38;;
6185;SDS011;3126;52.738;8.316;2024-01-10T13:11:18;6.70;;;5.28;;
6185;SDS011;3126;52.738;8.316;2024-01-10T13:16:20;9.70;;;6.70;;
6185;SDS011;3126;52.738;8.316;2024-01-10T13:21:21;14.27;;;7.28;;
6185;SDS011;3126;52.738;8.316;2024-01-10T13:26:22;6.68;;;5.00;;
6185;SDS011;3126;52.738;8.316;2024-01-10T13:31:23;7.78;;;5.65;;
6185;SDS011;3126;52.738;8.316;2024-01-10T13:36:25;8.82;;;4.97;;
6185;SDS011;3126;52.738;8.316;2024-01-10T13:41:26;7.35;;;5.07;;
6185;SDS011;3126;52.738;8.316;2024-01-10T13:46:27;7.30;;;5.07;;
6185;SDS011;3126;52.738;8.316;2024-01-10T13:51:28;7.30;;;5.03;;
6185;SDS011;3126;52.738;8.316;2024-01-10T13:56:29;9.20;;;5.95;;
6185;SDS011;3126;52.738;8.316;2024-01-10T14:01:32;8.35;;;4.88;;
6185;SDS011;3126;52.738;8.316;2024-01-10T14:06:33;9.00;;;5.68;;
6185;SDS011;3126;52.738;8.316;2024-01-10T14:11:33;9.52;;;6.15;;
6185;SDS011;3126;52.738;8.316;2024-01-10T14:16:35;9.75;;;6.38;;
6185;SDS011;3126;52.738;8.316;2024-01-10T14:21:36;7.78;;;5.85;;
6185;SDS011;3126;52.738;8.316;2024-01-10T14:26:37;10.02;;;5.93;;
6185;SDS011;3126;52.738;8.316;2024-01-10T14:31:38;17.95;;;9.18;;
6185;SDS011;3126;52.738;8.316;2024-01-10T14:36:39;9.48;;;6.28;;
6185;SDS011;3126;52.738;8.316;2024-01-10T14:41:40;10.00;;;6.30;;
6185;SDS011;3126;52.738;8.316;2024-01-10T14:46:41;11.27;;;5.63;;
6185;SDS011;3126;52.738;8.316;2024-01-10T14:51:43;10.55;;;7.30;;
6185;SDS011;3126;52.738;8.316;2024-01-10T14:56:44;9.90;;;6.22;;
6185;SDS011;3126;52.738;8.316;2024-01-10T15:01:45;11.93;;;6.90;;
6185;SDS011;3126;52.738;8.316;2024-01-10T15:06:46;13.07;;;6.65;;
6185;SDS011;3126;52.738;8.316;2024-01-10T15:11:47;8.60;;;6.30;;
6185;SDS011;3126;52.738;8.316;2024-01-10T15:16:48;13.05;;;6.50;;
6185;SDS011;3126;52.738;8.316;2024-01-10T15:21:49;13.23;;;6.82;;
6185;SDS011;3126;52.738;8.316;2024-01-10T15:26:50;13.80;;;8.30;;
6185;SDS011;3126;52.738;8.316;2024-01-10T15:31:53;21.85;;;10.23;;
6185;SDS011;3126;52.738;8.316;2024-01-10T15:36:54;16.25;;;9.95;;
6185;SDS011;3126;52.738;8.316;2024-01-10T15:41:55;16.88;;;11.07;;
6185;SDS011;3126;52.738;8.316;2024-01-10T15:46:56;11.10;;;6.82;;
6185;SDS011;3126;52.738;8.316;2024-01-10T15:51:57;11.18;;;6.57;;
6185;SDS011;3126;52.738;8.316;2024-01-10T15:56:58;12.75;;;8.05;;
6185;SDS011;3126;52.738;8.316;2024-01-10T16:01:59;12.50;;;8.00;;
6185;SDS011;3126;52.738;8.316;2024-01-10T16:07:01;12.00;;;7.53;;
6185;SDS011;3126;52.738;8.316;2024-01-10T16:12:02;13.20;;;6.82;;
6185;SDS011;3126;52.738;8.316;2024-01-10T16:17:03;12.13;;;7.53;;
6185;SDS011;3126;52.738;8.316;2024-01-10T16:22:04;12.02;;;6.30;;
6185;SDS011;3126;52.738;8.316;2024-01-10T16:27:05;12.95;;;7.47;;
6185;SDS011;3126;52.738;8.316;2024-01-10T16:32:06;13.90;;;7.75;;
6185;SDS011;3126;52.738;8.316;2024-01-10T16:37:07;12.30;;;6.40;;
6185;SDS011;3126;52.738;8.316;2024-01-10T16:42:08;10.98;;;6.47;;
6185;SDS011;3126;52.738;8.316;2024-01-10T16:47:10;13.13;;;7.00;;
6185;SDS011;3126;52.738;8.316;2024-01-10T16:52:11;11.90;;;7.40;;
6185;SDS011;3126;52.738;8.316;2024-01-10T16:57:12;12.07;;;6.63;;
6185;SDS011;3126;52.738;8.316;2024-01-10T17:02:13;18.77;;;11.30;;
6185;SDS011;3126;52.738;8.316;2024-01-10T17:07:14;13.73;;;7.45;;
6185;SDS011;3126;52.738;8.316;2024-01-10T17:12:15;13.25;;;7.57;;
6185;SDS011;3126;52.738;8.316;2024-01-10T17:17:17;14.55;;;8.05;;
6185;SDS011;3126;52.738;8.316;2024-01-10T17:22:18;11.57;;;8.13;;
6185;SDS011;3126;52.738;8.316;2024-01-10T17:27:19;13.82;;;7.90;;
6185;SDS011;3126;52.738;8.316;2024-01-10T17:32:20;12.40;;;7.78;;
6185;SDS011;3126;52.738;8.316;2024-01-10T17:37:21;12.23;;;7.32;;
6185;SDS011;3126;52.738;8.316;2024-01-10T17:42:23;9.85;;;6.95;;
6185;SDS011;3126;52.738;8.316;2024-01-10T17:47:24;12.30;;;7.35;;
6185;SDS011;3126;52.738;8.316;2024-01-10T17:52:25;14.60;;;8.27;;
6185;SDS011;3126;52.738;8.316;2024-01-10T17:57:25;17.92;;;8.02;;
6185;SDS011;3126;52.738;8.316;2024-01-10T18:02:26;20.67;;;10.82;;
6185;SDS011;3126;52.738;8.316;2024-01-10T18:07:28;23.50;;;10.50;;
6185;SDS011;3126;52.738;8.316;2024-01-10T18:12:28;15.18;;;7.55;;
6185;SDS011;3126;52.738;8.316;2024-01-10T18:17:29;14.18;;;7.88;;
6185;SDS011;3126;52.738;8.316;2024-01-10T18:22:30;14.00;;;8.30;;
6185;SDS011;3126;52.738;8.316;2024-01-10T18:27:31;14.38;;;7.28;;
6185;SDS011;3126;52.738;8.316;2024-01-10T18:32:32;12.13;;;7.65;;
6185;SDS011;3126;52.738;8.316;2024-01-10T18:37:33;12.85;;;7.95;;
6185;SDS011;3126;52.738;8.316;2024-01-10T18:42:34;15.60;;;8.80;;
6185;SDS011;3126;52.738;8.316;2024-01-10T18:47:35;14.02;;;8.40;;
6185;SDS011;3126;52.738;8.316;2024-01-10T18:52:36;14.88;;;8.25;;
6185;SDS011;3126;52.738;8.316;2024-01-10T18:57:38;14.45;;;8.73;;
6185;SDS011;3126;52.738;8.316;2024-01-10T19:02:39;14.93;;;7.85;;
6185;SDS011;3126;52.738;8.316;2024-01-10T19:07:40;19.65;;;9.40;;
6185;SDS011;3126;52.738;8.316;2024-01-10T19:12:41;15.23;;;9.38;;
6185;SDS011;3126;52.738;8.316;2024-01-10T19:17:42;17.02;;;9.57;;
6185;SDS011;3126;52.738;8.316;2024-01-10T19:22:43;16.63;;;8.38;;
6185;SDS011;3126;52.738;8.316;2024-01-10T19:27:46;20.58;;;10.27;;
6185;SDS011;3126;52.738;8.316;2024-01-10T19:32:47;16.48;;;9.75;;
6185;SDS011;3126;52.738;8.316;2024-01-10T19:37:48;19.98;;;9.35;;
6185;SDS011;3126;52.738;8.316;2024-01-10T19:42:50;17.25;;;8.07;;
6185;SDS011;3126;52.738;8.316;2024-01-10T19:47:51;16.23;;;8.95;;
6185;SDS011;3126;52.738;8.316;2024-01-10T19:52:51;16.67;;;7.93;;
6185;SDS011;3126;52.738;8.316;2024-01-10T19:57:53;19.65;;;9.13;;
6185;SDS011;3126;52.738;8.316;2024-01-10T20:02:54;13.60;;;8.60;;
6185;SDS011;3126;52.738;8.316;2024-01-10T20:07:55;14.63;;;9.40;;
6185;SDS011;3126;52.738;8.316;2024-01-10T20:12:56;16.10;;;10.00;;
6185;SDS011;3126;52.738;8.316;2024-01-10T20:17:57;15.57;;;9.35;;
6185;SDS011;3126;52.738;8.316;2024-01-10T20:22:58;18.45;;;8.65;;
6185;SDS011;3126;52.738;8.316;2024-01-10T20:27:59;16.60;;;8.50;;
6185;SDS011;3126;52.738;8.316;2024-01-10T20:33:00;16.58;;;10.25;;
6185;SDS011;3126;52.738;8.316;2024-01-10T20:38:01;15.93;;;9.25;;
6185;SDS011;3126;52.738;8.316;2024-01-10T20:43:02;16.08;;;8.50;;
6185;SDS011;3126;52.738;8.316;2024-01-10T20:48:03;17.92;;;8.52;;
6185;SDS011;3126;52.738;8.316;2024-01-10T20:53:04;15.23;;;9.18;;
6185;SDS011;3126;52.738;8.316;2024-01-10T20:58:05;20.27;;;10.38;;
6185;SDS011;3126;52.738;8.316;2024-01-10T21:03:06;14.55;;;8.27;;
6185;SDS011;3126;52.738;8.316;2024-01-10T21:08:07;19.50;;;10.20;;
6185;SDS011;3126;52.738;8.316;2024-01-10T21:13:08;19.50;;;10.75;;
6185;SDS011;3126;52.738;8.316;2024-01-10T21:18:09;17.67;;;10.20;;
6185;SDS011;3126;52.738;8.316;2024-01-10T21:23:11;16.63;;;8.85;;
6185;SDS011;3126;52.738;8.316;2024-01-10T21:28:12;18.67;;;9.00;;
6185;SDS011;3126;52.738;8.316;2024-01-10T21:33:14;16.67;;;9.45;;
6185;SDS011;3126;52.738;8.316;2024-01-10T21:38:15;20.67;;;9.32;;
6185;SDS011;3126;52.738;8.316;2024-01-10T21:43:16;19.02;;;10.00;;
6185;SDS011;3126;52.738;8.316;2024-01-10T21:48:18;19.05;;;9.73;;
6185;SDS011;3126;52.738;8.316;2024-01-10T21:53:21;16.27;;;8.52;;
6185;SDS011;3126;52.738;8.316;2024-01-10T21:58:21;17.02;;;10.75;;
6185;SDS011;3126;52.738;8.316;2024-01-10T22:03:22;20.15;;;9.65;;
6185;SDS011;3126;52.738;8.316;2024-01-10T22:08:24;20.85;;;10.70;;
6185;SDS011;3126;52.738;8.316;2024-01-10T22:13:25;20.30;;;9.95;;
6185;SDS011;3126;52.738;8.316;2024-01-10T22:18:26;22.02;;;10.50;;
6185;SDS011;3126;52.738;8.316;2024-01-10T22:23:29;19.80;;;10.82;;
6185;SDS011;3126;52.738;8.316;2024-01-10T22:28:30;20.00;;;9.50;;
6185;SDS011;3126;52.738;8.316;2024-01-10T22:33:31;19.20;;;9.98;;
6185;SDS011;3126;52.738;8.316;2024-01-10T22:38:32;19.83;;;10.60;;
6185;SDS011;3126;52.738;8.316;2024-01-10T22:43:33;19.35;;;10.38;;
6185;SDS011;3126;52.738;8.316;2024-01-10T22:48:34;21.20;;;11.25;;
6185;SDS011;3126;52.738;8.316;2024-01-10T22:53:35;18.95;;;9.02;;
6185;SDS011;3126;52.738;8.316;2024-01-10T22:58:36;19.90;;;10.80;;
6185;SDS011;3126;52.738;8.316;2024-01-10T23:03:36;24.52;;;11.43;;
6185;SDS011;3126;52.738;8.316;2024-01-10T23:08:37;20.50;;;10.70;;
6185;SDS011;3126;52.738;8.316;2024-01-10T23:13:38;20.80;;;9.82;;
6185;SDS011;3126;52.738;8.316;2024-01-10T23:18:39;17.48;;;10.23;;
6185;SDS011;3126;52.738;8.316;2024-01-10T23:23:40;21.45;;;11.80;;
6185;SDS011;3126;52.738;8.316;2024-01-10T23:28:42;25.45;;;12.60;;
6185;SDS011;3126;52.738;8.316;2024-01-10T23:33:43;22.23;;;10.10;;
6185;SDS011;3126;52.738;8.316;2024-01-10T23:38:44;18.40;;;11.50;;
6185;SDS011;3126;52.738;8.316;2024-01-10T23:43:45;21.88;;;11.75;;
6185;SDS011;3126;52.738;8.316;2024-01-10T23:48:46;19.33;;;11.07;;
6185;SDS011;3126;52.738;8.316;2024-01-10T23:53:47;21.48;;;10.77;;
6185;SDS011;3126;52.738;8.316;2024-01-10T23:58:48;24.08;;;12.55;;
